Time;durP1;ratioP1;P1;durP2;ratioP2;P2;SDS_P1;SDS_P2;PMS_P1;PMS_P2;Temp;Humidity;BMP_temperature;BMP_pressure;BME280_temperature;BME280_humidity;BME280_pressure;Samples;Min_cycle;Max_cycle;Signal;HPM_P1;HPM_P2
2023/07/15 00:01:06;;;;;;;5.40;3.70;;;20.60;98.00;;;;;;5031993;28;20862;-62
2023/07/15 00:03:34;;;;;;;9.23;3.70;;;20.60;98.00;;;;;;5031800;28;20458;-62
2023/07/15 00:06:02;;;;;;;5.60;3.63;;;20.50;98.00;;;;;;5031732;28;20513;-62
2023/07/15 00:08:31;;;;;;;7.23;4.10;;;20.60;98.00;;;;;;5031615;28;20482;-62
2023/07/15 00:11:00;;;;;;;6.30;3.70;;;20.70;98.00;;;;;;5030485;28;20458;-62
2023/07/15 00:13:35;;;;;;;6.83;3.57;;;20.80;98.00;;;;;;5031653;28;20542;-62
2023/07/15 00:16:02;;;;;;;6.53;3.77;;;20.80;98.00;;;;;;5030603;28;20458;-62
2023/07/15 00:18:29;;;;;;;5.40;3.70;;;20.80;98.00;;;;;;5031661;28;20455;-62
2023/07/15 00:20:56;;;;;;;5.63;3.67;;;20.90;98.00;;;;;;5031612;28;20458;-62
2023/07/15 00:23:26;;;;;;;4.93;3.37;;;20.90;98.00;;;;;;5031564;28;20477;-62
2023/07/15 00:25:54;;;;;;;5.83;3.67;;;20.70;98.00;;;;;;5031519;28;20461;-62
2023/07/15 00:28:24;;;;;;;8.20;3.93;;;20.70;98.00;;;;;;5031438;28;20577;-62
2023/07/15 00:30:54;;;;;;;4.60;3.67;;;20.60;98.00;;;;;;5031756;28;20487;-63
2023/07/15 00:33:22;;;;;;;5.57;3.50;;;20.50;98.00;;;;;;5030208;28;20459;-62
2023/07/15 00:35:50;;;;;;;7.27;3.90;;;20.40;98.00;;;;;;5031370;28;20450;-62
2023/07/15 00:38:17;;;;;;;8.70;3.80;;;20.20;98.00;;;;;;5031447;28;20454;-62
2023/07/15 00:40:46;;;;;;;6.57;3.60;;;20.20;98.00;;;;;;5031204;28;20454;-62
2023/07/15 00:43:50;;;;;;;5.70;3.50;;;20.10;98.00;;;;;;5031534;28;20455;-62
2023/07/15 00:46:52;;;;;;;6.97;3.67;;;20.20;98.00;;;;;;5031514;28;20827;-61
2023/07/15 00:49:22;;;;;;;6.43;3.97;;;20.20;98.00;;;;;;5031362;28;20485;-62
2023/07/15 00:51:52;;;;;;;6.23;4.13;;;20.30;98.00;;;;;;5031243;28;20498;-62
2023/07/15 00:54:20;;;;;;;6.60;3.60;;;20.40;98.00;;;;;;5031221;28;20463;-62
2023/07/15 00:56:49;;;;;;;4.73;3.60;;;20.20;98.00;;;;;;5029856;28;20465;-63
2023/07/15 00:59:17;;;;;;;7.87;3.73;;;20.10;98.00;;;;;;5031241;28;20455;-62
2023/07/15 01:01:46;;;;;;;5.70;3.50;;;20.10;98.00;;;;;;5029892;28;20451;-62
2023/07/15 01:04:14;;;;;;;5.47;3.70;;;20.10;98.00;;;;;;5031220;28;20546;-62
2023/07/15 01:06:41;;;;;;;6.27;3.47;;;20.10;98.00;;;;;;5029715;28;20873;-62
2023/07/15 01:09:09;;;;;;;5.63;3.60;;;19.90;98.00;;;;;;5030984;28;21146;-62
2023/07/15 01:11:37;;;;;;;6.27;3.90;;;19.90;98.00;;;;;;5030997;28;21051;-62
2023/07/15 01:14:05;;;;;;;5.13;3.50;;;19.90;98.00;;;;;;5031188;28;20454;-62
2023/07/15 01:16:33;;;;;;;9.40;3.50;;;19.90;98.00;;;;;;5029701;28;20482;-62
2023/07/15 01:19:02;;;;;;;4.73;3.30;;;20.10;98.00;;;;;;5029738;28;20512;-62
2023/07/15 01:21:33;;;;;;;7.13;4.00;;;19.90;98.00;;;;;;5030950;28;20505;-62
2023/07/15 01:24:02;;;;;;;8.40;3.83;;;19.90;98.00;;;;;;5030814;28;20509;-62
2023/07/15 01:26:29;;;;;;;5.07;3.60;;;19.90;98.00;;;;;;5030848;28;20454;-62
2023/07/15 01:28:56;;;;;;;8.40;4.50;;;19.90;98.00;;;;;;5030830;28;20486;-62
2023/07/15 01:31:23;;;;;;;6.37;4.00;;;19.80;98.00;;;;;;5030807;28;20446;-62
2023/07/15 01:33:51;;;;;;;6.00;3.90;;;19.60;98.00;;;;;;5031029;28;20454;-62
2023/07/15 01:36:18;;;;;;;5.87;3.87;;;19.70;98.00;;;;;;5030891;28;20462;-62
2023/07/15 01:38:45;;;;;;;5.80;3.90;;;19.70;98.00;;;;;;5030938;28;20454;-62
2023/07/15 01:41:13;;;;;;;6.00;3.63;;;19.50;98.00;;;;;;5030913;28;20461;-62
2023/07/15 01:43:40;;;;;;;7.57;4.00;;;19.40;98.00;;;;;;5030920;28;20460;-63
2023/07/15 01:46:08;;;;;;;6.30;3.87;;;19.50;98.00;;;;;;5030745;28;21009;-62
2023/07/15 01:48:36;;;;;;;6.10;4.13;;;19.60;98.00;;;;;;5029261;28;20489;-62
2023/07/15 01:51:03;;;;;;;5.30;3.50;;;19.40;98.00;;;;;;5030612;28;20961;-62
2023/07/15 01:53:30;;;;;;;6.00;3.53;;;19.40;98.00;;;;;;5033524;28;20473;-62
2023/07/15 01:55:58;;;;;;;5.10;3.60;;;19.30;98.00;;;;;;5034224;28;20451;-62
2023/07/15 01:58:26;;;;;;;9.37;4.37;;;19.40;98.00;;;;;;5032987;28;20463;-62
2023/07/15 02:00:53;;;;;;;7.10;4.47;;;19.30;98.00;;;;;;5034115;28;20462;-62
2023/07/15 02:03:21;;;;;;;6.93;4.00;;;19.30;98.00;;;;;;5034008;28;20512;-62
2023/07/15 02:05:48;;;;;;;7.37;4.23;;;19.40;98.00;;;;;;5033989;28;20459;-62
2023/07/15 02:08:15;;;;;;;7.07;4.17;;;19.30;98.00;;;;;;5032821;28;20902;-62
2023/07/15 02:10:42;;;;;;;7.10;4.40;;;19.40;98.00;;;;;;5034250;28;20455;-62
2023/07/15 02:13:11;;;;;;;7.60;4.00;;;19.30;98.00;;;;;;5033951;28;20451;-62
2023/07/15 02:15:39;;;;;;;6.20;3.70;;;19.30;98.00;;;;;;5033699;28;20454;-62
2023/07/15 02:18:07;;;;;;;6.10;3.87;;;19.30;98.00;;;;;;5033783;28;20521;-62
2023/07/15 02:20:34;;;;;;;7.73;3.90;;;19.20;98.00;;;;;;5032580;28;20968;-62
2023/07/15 02:23:01;;;;;;;7.60;4.20;;;19.10;98.00;;;;;;5033836;28;20458;-62
2023/07/15 02:25:28;;;;;;;5.50;3.50;;;19.10;98.00;;;;;;5033650;28;20451;-62
2023/07/15 02:27:55;;;;;;;6.23;3.73;;;19.10;98.00;;;;;;5032524;28;20454;-62
2023/07/15 02:30:22;;;;;;;6.73;3.70;;;19.10;98.00;;;;;;5033683;28;20490;-62
2023/07/15 02:32:50;;;;;;;5.17;3.60;;;19.10;98.00;;;;;;5033884;28;20510;-62
2023/07/15 02:35:18;;;;;;;5.73;3.33;;;19.00;98.00;;;;;;5033531;28;20451;-62
2023/07/15 02:37:45;;;;;;;7.00;3.70;;;18.90;98.00;;;;;;5033450;28;20887;-63
2023/07/15 02:40:12;;;;;;;6.20;4.00;;;18.90;98.00;;;;;;5033590;28;20446;-62
2023/07/15 02:42:39;;;;;;;7.17;3.90;;;18.80;98.00;;;;;;5033352;28;20465;-61
2023/07/15 02:45:08;;;;;;;5.90;3.70;;;18.70;98.00;;;;;;5033204;28;20477;-62
2023/07/15 02:47:36;;;;;;;5.63;3.67;;;18.70;98.00;;;;;;5033302;28;20457;-62
2023/07/15 02:50:07;;;;;;;5.97;3.90;;;18.70;98.00;;;;;;5032110;28;20570;-62
2023/07/15 02:52:35;;;;;;;5.87;4.10;;;18.60;98.00;;;;;;5033317;28;20455;-62
2023/07/15 02:55:03;;;;;;;5.40;3.40;;;18.60;98.00;;;;;;5033126;28;20480;-62
2023/07/15 02:57:31;;;;;;;5.37;3.63;;;18.70;98.00;;;;;;5032996;28;20454;-62
2023/07/15 02:59:58;;;;;;;5.37;3.47;;;18.70;98.00;;;;;;5032939;28;20459;-63
2023/07/15 03:02:25;;;;;;;5.43;3.67;;;18.80;98.00;;;;;;5032804;28;20459;-62
2023/07/15 03:04:53;;;;;;;6.07;4.07;;;18.80;98.00;;;;;;5032921;28;20548;-62
2023/07/15 03:07:22;;;;;;;5.80;3.90;;;18.80;98.00;;;;;;5032734;28;20466;-62
2023/07/15 03:09:49;;;;;;;6.10;3.70;;;18.80;98.00;;;;;;5032657;28;20536;-62
2023/07/15 03:12:16;;;;;;;5.63;3.63;;;18.90;98.00;;;;;;5032718;28;20454;-62
2023/07/15 03:14:44;;;;;;;6.10;3.70;;;18.80;98.00;;;;;;5032745;28;20482;-62
2023/07/15 03:17:11;;;;;;;6.37;3.73;;;18.80;98.00;;;;;;5032819;28;20816;-62
2023/07/15 03:19:39;;;;;;;6.13;3.87;;;18.80;98.00;;;;;;5031576;28;20462;-62
2023/07/15 03:22:06;;;;;;;7.43;3.80;;;18.90;98.00;;;;;;5032814;28;20453;-62
2023/07/15 03:24:36;;;;;;;9.70;4.43;;;18.80;98.00;;;;;;5032277;28;21003;-62
2023/07/15 03:27:03;;;;;;;6.07;3.80;;;18.60;98.00;;;;;;5033031;28;20478;-62
2023/07/15 03:29:31;;;;;;;6.10;4.00;;;18.50;98.00;;;;;;5032414;28;20490;-62
2023/07/15 03:31:58;;;;;;;7.43;4.20;;;18.60;98.00;;;;;;5032571;28;20549;-62
2023/07/15 03:34:25;;;;;;;6.47;3.50;;;18.60;98.00;;;;;;5032349;28;20461;-62
2023/07/15 03:36:52;;;;;;;6.40;3.90;;;18.60;98.00;;;;;;5032321;28;20451;-62
2023/07/15 03:39:19;;;;;;;5.40;3.53;;;18.50;98.00;;;;;;5032210;28;20454;-62
2023/07/15 03:41:48;;;;;;;4.70;3.33;;;18.20;98.00;;;;;;5032231;28;20459;-62
2023/07/15 03:44:15;;;;;;;6.37;3.50;;;18.20;98.00;;;;;;5031969;28;20470;-62
2023/07/15 03:46:42;;;;;;;5.87;3.90;;;18.20;98.00;;;;;;5031058;28;20463;-62
2023/07/15 03:49:09;;;;;;;6.00;3.70;;;18.20;98.00;;;;;;5031944;28;20481;-62
2023/07/15 03:51:36;;;;;;;4.43;3.27;;;18.20;98.00;;;;;;5032027;28;20908;-62
2023/07/15 03:54:05;;;;;;;5.80;3.60;;;18.30;98.00;;;;;;5031993;28;20446;-62
2023/07/15 03:56:33;;;;;;;5.83;3.43;;;18.40;98.00;;;;;;5032055;28;20451;-62
2023/07/15 03:59:01;;;;;;;6.13;3.40;;;18.40;98.00;;;;;;5030661;28;20521;-62
2023/07/15 04:01:29;;;;;;;8.60;4.30;;;18.50;98.00;;;;;;5032061;28;20512;-62
2023/07/15 04:03:56;;;;;;;5.77;3.90;;;18.40;98.00;;;;;;5030670;28;20450;-62
2023/07/15 04:06:23;;;;;;;6.10;3.67;;;18.40;98.00;;;;;;5031742;28;20481;-62
2023/07/15 04:08:50;;;;;;;6.70;3.53;;;18.30;98.00;;;;;;5031861;28;20465;-62
2023/07/15 04:11:18;;;;;;;4.93;3.30;;;18.30;98.00;;;;;;5030569;28;20972;-62
2023/07/15 04:13:46;;;;;;;6.40;3.70;;;18.20;98.00;;;;;;5030555;28;20482;-62
2023/07/15 04:16:14;;;;;;;6.77;3.60;;;18.20;98.00;;;;;;5031365;28;20532;-62
2023/07/15 04:18:45;;;;;;;6.43;3.93;;;18.40;98.00;;;;;;5031812;28;20458;-62
2023/07/15 04:21:12;;;;;;;5.10;3.20;;;18.50;98.00;;;;;;5031905;28;20450;-62
2023/07/15 04:23:39;;;;;;;6.53;3.77;;;18.60;98.00;;;;;;5031845;28;20459;-62
2023/07/15 04:26:07;;;;;;;4.80;3.43;;;18.60;98.00;;;;;;5031576;28;20459;-62
2023/07/15 04:28:37;;;;;;;7.80;3.73;;;18.80;98.00;;;;;;5030230;28;20949;-62
2023/07/15 04:31:04;;;;;;;5.73;3.47;;;18.80;98.00;;;;;;5031760;28;20462;-61
2023/07/15 04:33:32;;;;;;;5.83;3.70;;;18.80;98.00;;;;;;5031376;28;20498;-62
2023/07/15 04:36:00;;;;;;;6.73;3.43;;;18.80;98.00;;;;;;5031380;28;20500;-62
2023/07/15 04:38:27;;;;;;;6.53;3.83;;;18.90;98.00;;;;;;5031325;28;20462;-62
2023/07/15 04:40:54;;;;;;;6.30;3.47;;;18.80;98.00;;;;;;5031462;28;20481;-62
2023/07/15 04:43:22;;;;;;;5.57;3.80;;;18.90;98.00;;;;;;5030954;28;20510;-62
2023/07/15 04:45:51;;;;;;;6.40;3.57;;;18.80;98.00;;;;;;5031121;28;20551;-62
2023/07/15 04:48:18;;;;;;;6.93;3.87;;;18.80;98.00;;;;;;5031131;28;20466;-62
2023/07/15 04:50:47;;;;;;;7.67;4.00;;;18.90;98.00;;;;;;5031110;28;20486;-62
2023/07/15 04:53:15;;;;;;;5.80;3.60;;;19.10;98.00;;;;;;5031326;28;20468;-62
2023/07/15 04:55:42;;;;;;;6.83;4.07;;;19.10;98.00;;;;;;5029948;28;20516;-62
2023/07/15 04:58:11;;;;;;;5.27;3.53;;;19.10;98.00;;;;;;5031010;28;20455;-62
2023/07/15 05:00:38;;;;;;;8.33;4.30;;;19.10;98.00;;;;;;5031366;28;20495;-62
2023/07/15 05:03:06;;;;;;;5.00;3.50;;;19.00;98.00;;;;;;5031065;28;20534;-62
2023/07/15 05:05:33;;;;;;;7.50;3.87;;;19.00;98.00;;;;;;5029662;28;20458;-62
2023/07/15 05:08:10;;;;;;;4.63;3.57;;;19.00;98.00;;;;;;5031145;28;20451;-62
2023/07/15 05:10:37;;;;;;;6.43;3.90;;;19.10;98.00;;;;;;5031168;28;20494;-62
2023/07/15 05:13:04;;;;;;;5.87;3.70;;;19.30;98.00;;;;;;5031224;28;20454;-62
2023/07/15 05:15:32;;;;;;;5.43;3.63;;;19.40;98.00;;;;;;5031169;28;21019;-62
2023/07/15 05:17:59;;;;;;;8.27;4.33;;;19.50;98.00;;;;;;5031007;28;20549;-62
2023/07/15 05:20:26;;;;;;;6.13;3.97;;;19.60;98.00;;;;;;5031020;28;20451;-62
2023/07/15 05:22:53;;;;;;;7.80;4.37;;;19.70;98.00;;;;;;5030866;28;20451;-62
2023/07/15 05:25:22;;;;;;;6.97;4.10;;;19.70;98.00;;;;;;5029758;28;20458;-62
2023/07/15 05:27:49;;;;;;;5.10;3.70;;;19.70;98.00;;;;;;5031598;28;20455;-62
2023/07/15 05:30:17;;;;;;;6.17;4.10;;;19.80;98.00;;;;;;5034627;28;20482;-62
2023/07/15 05:32:44;;;;;;;7.30;4.13;;;19.80;98.00;;;;;;5034559;28;20460;-62
2023/07/15 05:35:11;;;;;;;6.30;4.23;;;19.90;98.00;;;;;;5033468;28;20458;-62
2023/07/15 05:37:38;;;;;;;7.97;4.23;;;20.00;98.00;;;;;;5034465;28;20964;-62
2023/07/15 05:40:09;;;;;;;8.33;4.00;;;20.10;98.00;;;;;;5034359;28;20821;-62
2023/07/15 05:42:38;;;;;;;9.17;4.37;;;20.20;98.00;;;;;;5034714;28;20893;-62
2023/07/15 05:45:06;;;;;;;6.90;4.33;;;20.20;98.00;;;;;;5034298;28;20506;-62
2023/07/15 05:47:34;;;;;;;7.67;4.93;;;20.30;98.00;;;;;;5033245;28;20807;-63
2023/07/15 05:50:01;;;;;;;6.67;4.30;;;20.50;98.00;;;;;;5034424;28;20498;-62
2023/07/15 05:52:28;;;;;;;9.40;4.30;;;20.70;98.00;;;;;;5034442;28;20501;-62
2023/07/15 05:54:55;;;;;;;8.10;4.00;;;20.70;98.00;;;;;;5034287;28;20524;-62
2023/07/15 05:57:22;;;;;;;5.37;3.70;;;20.70;98.00;;;;;;5034147;28;20724;-62
2023/07/15 05:59:51;;;;;;;5.90;3.77;;;20.80;98.00;;;;;;5034309;28;20461;-62
2023/07/15 06:02:19;;;;;;;6.30;4.07;;;20.80;98.00;;;;;;5034051;28;20459;-62
2023/07/15 06:04:46;;;;;;;7.53;4.40;;;20.90;98.00;;;;;;5034106;28;20486;-63
2023/07/15 06:07:13;;;;;;;10.30;5.60;;;21.00;98.00;;;;;;5032965;28;20453;-62
2023/07/15 06:09:40;;;;;;;11.40;6.50;;;21.10;98.00;;;;;;5034095;28;20541;-63
2023/07/15 06:12:08;;;;;;;10.33;5.43;;;21.20;98.00;;;;;;5033925;28;20461;-63
2023/07/15 06:14:35;;;;;;;5.63;4.20;;;21.30;98.00;;;;;;5033818;28;20827;-62
2023/07/15 06:17:04;;;;;;;5.57;3.77;;;21.40;98.00;;;;;;5033848;28;20446;-62
2023/07/15 06:19:31;;;;;;;7.43;4.00;;;21.60;98.00;;;;;;5032396;28;20458;-62
2023/07/15 06:21:58;;;;;;;6.10;3.90;;;21.80;98.00;;;;;;5033838;28;20861;-63
2023/07/15 06:24:25;;;;;;;6.13;4.20;;;21.90;98.00;;;;;;5033496;28;20509;-63
2023/07/15 06:26:52;;;;;;;7.07;4.03;;;22.00;98.00;;;;;;5033616;28;20446;-62
2023/07/15 06:29:19;;;;;;;8.50;4.17;;;22.00;98.00;;;;;;5033450;28;20980;-62
2023/07/15 06:31:46;;;;;;;6.63;4.33;;;22.10;98.00;;;;;;5033566;28;20538;-63
2023/07/15 06:34:15;;;;;;;6.10;4.37;;;22.20;98.00;;;;;;5033675;28;20454;-63
2023/07/15 06:36:43;;;;;;;8.77;3.83;;;22.30;98.00;;;;;;5032171;28;20512;-62
2023/07/15 06:39:10;;;;;;;6.93;4.47;;;22.50;98.00;;;;;;5033166;28;20459;-62
2023/07/15 06:41:37;;;;;;;5.47;4.13;;;22.50;98.00;;;;;;5033397;28;20454;-63
2023/07/15 06:44:05;;;;;;;5.83;3.73;;;22.60;98.00;;;;;;5033224;28;20466;-62
2023/07/15 06:46:32;;;;;;;5.43;3.83;;;22.70;98.00;;;;;;5033434;28;20976;-63
2023/07/15 06:48:59;;;;;;;6.47;3.63;;;22.90;98.00;;;;;;5033415;28;20467;-62
2023/07/15 06:51:28;;;;;;;5.57;3.93;;;23.00;98.00;;;;;;5033166;28;20474;-63
2023/07/15 06:53:55;;;;;;;4.93;3.60;;;23.20;98.00;;;;;;5033272;28;20517;-63
2023/07/15 06:56:23;;;;;;;7.00;4.30;;;23.30;98.00;;;;;;5033106;28;20505;-63
2023/07/15 06:58:50;;;;;;;5.37;3.57;;;23.50;98.00;;;;;;5033059;28;20455;-62
2023/07/15 07:01:17;;;;;;;5.90;3.80;;;23.70;98.00;;;;;;5033372;28;20457;-63
2023/07/15 07:03:44;;;;;;;6.23;4.10;;;23.80;98.00;;;;;;5033210;28;20454;-63
2023/07/15 07:06:12;;;;;;;5.70;3.90;;;24.10;98.00;;;;;;5033090;28;20541;-62
2023/07/15 07:08:43;;;;;;;7.23;3.97;;;24.20;98.00;;;;;;5032751;28;20458;-63
2023/07/15 07:11:10;;;;;;;5.53;3.40;;;24.40;98.00;;;;;;5032803;28;21075;-63
2023/07/15 07:13:37;;;;;;;5.43;3.60;;;24.60;98.00;;;;;;5032762;28;20451;-63
2023/07/15 07:16:05;;;;;;;6.40;3.80;;;24.80;98.00;;;;;;5032660;28;20463;-63
2023/07/15 07:18:32;;;;;;;6.70;3.63;;;25.00;98.00;;;;;;5032639;28;20450;-63
2023/07/15 07:21:00;;;;;;;5.33;3.60;;;25.10;98.00;;;;;;5032712;28;20465;-63
2023/07/15 07:23:29;;;;;;;5.93;3.73;;;25.30;98.00;;;;;;5032520;28;20459;-63
2023/07/15 07:25:58;;;;;;;6.47;4.00;;;25.60;98.00;;;;;;5031396;28;20465;-63
2023/07/15 07:28:38;;;;;;;5.30;3.60;;;25.70;98.00;;;;;;5032277;28;20454;-63
2023/07/15 07:31:06;;;;;;;5.20;3.30;;;25.90;98.00;;;;;;5032394;28;20483;-64
2023/07/15 07:33:33;;;;;;;6.97;3.60;;;26.00;98.00;;;;;;5031223;28;20820;-63
2023/07/15 07:36:00;;;;;;;7.03;4.17;;;26.10;97.40;;;;;;5032481;28;20868;-63
2023/07/15 07:38:27;;;;;;;6.20;3.67;;;26.30;97.80;;;;;;5032151;28;20992;-63
2023/07/15 07:40:54;;;;;;;4.40;3.50;;;26.50;97.10;;;;;;5032248;28;20462;-63
2023/07/15 07:43:22;;;;;;;5.83;4.00;;;26.60;96.50;;;;;;5029109;28;20479;-63
2023/07/15 07:45:49;;;;;;;5.07;3.63;;;26.80;96.30;;;;;;5032064;28;20485;-63
2023/07/15 07:48:16;;;;;;;5.67;3.67;;;26.90;96.00;;;;;;5032149;28;20443;-63
2023/07/15 07:50:43;;;;;;;4.37;3.20;;;27.10;96.00;;;;;;5030211;28;21016;-63
2023/07/15 07:53:12;;;;;;;6.07;3.73;;;27.30;95.60;;;;;;5032047;28;20450;-63
2023/07/15 07:55:39;;;;;;;5.30;3.60;;;27.50;94.40;;;;;;5032255;28;20459;-63
2023/07/15 07:58:06;;;;;;;5.07;3.30;;;27.70;93.40;;;;;;5032279;28;20459;-63
2023/07/15 08:00:34;;;;;;;6.90;3.63;;;27.90;93.50;;;;;;5032167;28;20466;-63
2023/07/15 08:03:02;;;;;;;5.27;3.53;;;28.10;89.50;;;;;;5031957;28;20451;-63
2023/07/15 08:05:29;;;;;;;9.13;3.33;;;28.40;88.50;;;;;;5031715;28;20957;-63
2023/07/15 08:07:57;;;;;;;5.43;3.50;;;28.60;87.70;;;;;;5031938;28;20473;-63
2023/07/15 08:10:24;;;;;;;4.70;3.33;;;28.90;86.50;;;;;;5031755;28;20894;-63
2023/07/15 08:12:54;;;;;;;7.93;3.80;;;29.10;85.20;;;;;;5031859;28;20466;-63
2023/07/15 08:15:21;;;;;;;5.43;3.43;;;29.30;84.80;;;;;;5031772;28;20446;-63
2023/07/15 08:17:50;;;;;;;5.43;3.30;;;29.50;84.80;;;;;;5030103;28;20485;-63
2023/07/15 08:20:17;;;;;;;5.50;3.30;;;29.70;83.60;;;;;;5031592;28;20470;-63
2023/07/15 08:22:46;;;;;;;3.93;2.73;;;29.90;82.30;;;;;;5030331;28;20454;-63
2023/07/15 08:25:13;;;;;;;6.20;3.97;;;30.10;82.40;;;;;;5031647;28;20517;-64
2023/07/15 08:27:40;;;;;;;4.83;3.43;;;30.20;82.30;;;;;;5031389;28;20529;-63
2023/07/15 08:30:09;;;;;;;6.43;3.63;;;30.30;81.20;;;;;;5031521;28;20811;-63
2023/07/15 08:32:36;;;;;;;4.10;3.20;;;30.50;81.60;;;;;;5031444;28;20884;-63
2023/07/15 08:35:05;;;;;;;4.13;3.10;;;30.70;81.40;;;;;;5013874;28;20454;-63
2023/07/15 08:37:33;;;;;;;4.03;3.00;;;30.90;79.70;;;;;;5031379;28;20857;-63
2023/07/15 08:40:00;;;;;;;7.10;3.20;;;31.00;80.40;;;;;;5031302;28;20850;-63
2023/07/15 08:42:28;;;;;;;3.87;3.30;;;31.20;80.30;;;;;;5031204;28;20458;-63
2023/07/15 08:44:56;;;;;;;3.73;3.20;;;31.30;78.80;;;;;;5031380;28;20489;-63
2023/07/15 08:47:25;;;;;;;3.30;2.90;;;31.50;76.10;;;;;;5031424;28;20447;-64
2023/07/15 08:49:56;;;;;;;4.40;3.00;;;31.70;75.90;;;;;;5013705;28;20479;-63
2023/07/15 08:52:24;;;;;;;5.70;3.67;;;32.00;75.60;;;;;;5011571;28;20487;-62
2023/07/15 08:54:53;;;;;;;4.63;3.30;;;32.10;75.90;;;;;;5011611;28;20457;-63
2023/07/15 08:57:22;;;;;;;4.40;3.20;;;32.20;73.70;;;;;;5011406;28;20463;-63
2023/07/15 08:59:49;;;;;;;4.03;3.10;;;32.30;74.20;;;;;;5011528;28;20460;-64
2023/07/15 09:02:17;;;;;;;3.87;2.90;;;32.40;73.70;;;;;;5014355;28;20459;-63
2023/07/15 09:04:44;;;;;;;5.20;2.87;;;32.50;73.50;;;;;;5015444;28;20958;-63
2023/07/15 09:07:11;;;;;;;4.13;3.20;;;32.60;72.90;;;;;;5015601;28;20514;-64
2023/07/15 09:09:40;;;;;;;4.40;3.00;;;32.70;71.60;;;;;;5015673;28;20463;-64
2023/07/15 09:12:10;;;;;;;5.07;3.20;;;32.80;72.20;;;;;;5015356;28;20483;-64
2023/07/15 09:14:42;;;;;;;4.47;2.90;;;32.90;72.60;;;;;;5015421;28;20949;-63
2023/07/15 09:17:09;;;;;;;4.63;2.97;;;32.90;72.90;;;;;;5014114;28;20459;-63
2023/07/15 09:19:37;;;;;;;4.37;2.97;;;32.90;71.10;;;;;;5013923;28;20474;-63
2023/07/15 09:22:06;;;;;;;4.10;3.23;;;32.80;71.20;;;;;;5013899;28;20456;-64
2023/07/15 09:24:34;;;;;;;3.60;2.80;;;32.90;72.00;;;;;;5015118;28;20478;-64
2023/07/15 09:27:03;;;;;;;4.67;3.17;;;33.00;72.50;;;;;;5015009;28;20463;-63
2023/07/15 09:29:33;;;;;;;6.47;3.70;;;33.10;71.80;;;;;;5014959;28;20875;-63
2023/07/15 09:32:00;;;;;;;4.53;3.40;;;33.30;71.70;;;;;;5014902;28;20570;-64
2023/07/15 09:34:28;;;;;;;6.23;2.87;;;33.40;70.70;;;;;;5014941;28;20462;-63
2023/07/15 09:36:56;;;;;;;4.83;3.20;;;33.50;71.30;;;;;;5014920;28;20873;-63
2023/07/15 09:39:24;;;;;;;4.43;3.17;;;33.70;70.10;;;;;;5015142;28;20463;-64
2023/07/15 09:42:02;;;;;;;4.30;3.10;;;33.80;71.50;;;;;;5014860;28;20451;-64
2023/07/15 09:44:38;;;;;;;3.83;2.90;;;34.00;69.00;;;;;;5014832;28;20474;-63
2023/07/15 09:47:05;;;;;;;5.27;3.10;;;33.90;69.00;;;;;;5015005;28;20754;-63
2023/07/15 09:49:33;;;;;;;5.60;3.00;;;33.90;68.80;;;;;;5014636;28;20458;-64
2023/07/15 09:52:02;;;;;;;5.10;3.37;;;34.00;68.80;;;;;;5014730;28;20483;-64
2023/07/15 09:54:32;;;;;;;4.63;3.17;;;34.00;68.70;;;;;;5014500;28;20471;-64
2023/07/15 09:57:04;;;;;;;4.37;3.27;;;34.20;69.80;;;;;;5014611;28;20752;-63
2023/07/15 09:59:39;;;;;;;3.97;3.07;;;34.40;69.80;;;;;;5014811;28;20546;-64
2023/07/15 10:02:18;;;;;;;4.67;3.13;;;34.50;68.40;;;;;;5014505;28;20455;-63
2023/07/15 10:04:46;;;;;;;4.40;3.30;;;34.60;68.20;;;;;;5014291;28;20982;-63
2023/07/15 10:07:14;;;;;;;4.37;2.70;;;34.60;67.90;;;;;;5014365;28;20513;-63
2023/07/15 10:09:41;;;;;;;4.43;3.10;;;34.60;68.60;;;;;;5014205;28;20455;-64
2023/07/15 10:12:10;;;;;;;4.40;3.37;;;34.70;68.30;;;;;;5014033;28;20819;-63
2023/07/15 10:14:39;;;;;;;4.10;3.20;;;34.70;68.90;;;;;;5013524;28;20451;-64
2023/07/15 10:17:11;;;;;;;3.70;2.97;;;35.00;68.30;;;;;;5012878;28;20479;-63
2023/07/15 10:19:43;;;;;;;4.10;3.23;;;35.00;67.50;;;;;;5013915;28;20468;-64
2023/07/15 10:22:11;;;;;;;3.77;2.90;;;35.10;68.10;;;;;;5013889;28;20463;-63
2023/07/15 10:24:40;;;;;;;4.93;3.17;;;35.10;66.90;;;;;;5013782;28;20447;-63
2023/07/15 10:27:11;;;;;;;5.03;3.20;;;35.20;67.90;;;;;;5013988;28;20455;-64
2023/07/15 10:29:39;;;;;;;4.23;3.10;;;35.30;67.50;;;;;;5013974;28;20463;-63
2023/07/15 10:32:11;;;;;;;4.90;3.43;;;35.40;67.40;;;;;;5013804;28;20479;-64
2023/07/15 10:34:40;;;;;;;4.43;3.20;;;35.50;66.50;;;;;;5013764;28;20459;-64
2023/07/15 10:37:12;;;;;;;4.00;3.03;;;35.50;66.30;;;;;;5014016;28;20460;-64
2023/07/15 10:39:40;;;;;;;4.57;3.17;;;35.60;66.50;;;;;;5013839;28;20538;-63
2023/07/15 10:42:13;;;;;;;4.23;3.00;;;35.70;65.70;;;;;;5012547;28;20481;-64
2023/07/15 10:44:44;;;;;;;4.00;2.90;;;35.80;65.40;;;;;;5012073;28;20888;-63
2023/07/15 10:47:14;;;;;;;4.40;3.23;;;35.80;63.60;;;;;;5013649;28;20469;-63
2023/07/15 10:49:42;;;;;;;3.70;3.00;;;35.70;64.00;;;;;;5013453;28;20713;-63
2023/07/15 10:52:09;;;;;;;3.97;2.83;;;35.70;64.20;;;;;;5012126;28;20570;-63
2023/07/15 10:54:38;;;;;;;5.07;3.13;;;35.90;64.80;;;;;;5013329;28;20463;-63
2023/07/15 10:57:11;;;;;;;4.97;3.00;;;36.00;64.00;;;;;;5013360;28;20451;-63
2023/07/15 10:59:40;;;;;;;3.90;3.13;;;36.20;63.60;;;;;;5013290;28;20882;-63
2023/07/15 11:02:08;;;;;;;3.63;2.97;;;36.50;63.70;;;;;;5012045;28;20490;-64
2023/07/15 11:04:36;;;;;;;3.70;3.03;;;36.70;64.00;;;;;;5013402;28;20452;-63
2023/07/15 11:07:04;;;;;;;3.60;2.83;;;37.00;64.20;;;;;;5013399;28;20489;-63
2023/07/15 11:09:32;;;;;;;4.60;3.20;;;37.30;62.00;;;;;;5013141;28;20534;-63
2023/07/15 11:12:00;;;;;;;3.87;2.70;;;37.40;63.00;;;;;;5012939;28;20483;-63
2023/07/15 11:14:29;;;;;;;4.23;3.10;;;37.70;62.10;;;;;;5012919;28;20455;-63
2023/07/15 11:16:58;;;;;;;4.40;3.17;;;37.90;62.60;;;;;;5013269;28;20820;-63
2023/07/15 11:19:27;;;;;;;4.50;3.00;;;38.00;60.40;;;;;;5012867;28;20463;-63
2023/07/15 11:21:57;;;;;;;4.90;3.00;;;37.90;60.10;;;;;;5013052;28;20479;-63
2023/07/15 11:24:25;;;;;;;6.43;3.43;;;37.90;60.60;;;;;;5011962;28;20460;-63
2023/07/15 11:26:52;;;;;;;4.77;3.27;;;37.30;61.40;;;;;;5012781;28;20498;-62
2023/07/15 11:29:20;;;;;;;3.17;2.87;;;37.10;61.90;;;;;;5012899;28;20463;-61
2023/07/15 11:31:51;;;;;;;3.83;3.13;;;37.20;62.70;;;;;;5012905;28;20490;-63
2023/07/15 11:34:19;;;;;;;3.93;3.03;;;37.20;63.50;;;;;;5012960;28;20867;-63
2023/07/15 11:36:47;;;;;;;4.20;3.23;;;37.00;63.70;;;;;;5012913;28;20455;-63
2023/07/15 11:39:15;;;;;;;4.93;3.40;;;37.00;61.90;;;;;;5012794;28;20459;-63
2023/07/15 11:41:43;;;;;;;5.90;3.00;;;37.40;62.70;;;;;;5012550;28;20464;-62
2023/07/15 11:44:11;;;;;;;3.70;3.10;;;37.90;61.00;;;;;;5012420;28;20556;-63
2023/07/15 11:46:39;;;;;;;5.13;3.00;;;38.20;60.90;;;;;;5012360;28;20466;-63
2023/07/15 11:49:08;;;;;;;3.60;2.73;;;38.60;59.60;;;;;;5012495;28;20456;-63
2023/07/15 11:51:37;;;;;;;3.73;2.93;;;38.50;60.60;;;;;;5012335;28;20479;-63
2023/07/15 11:54:09;;;;;;;3.50;2.93;;;38.10;60.30;;;;;;5012537;28;20789;-63
2023/07/15 11:56:38;;;;;;;3.77;2.90;;;37.80;61.20;;;;;;5012319;28;20542;-63
2023/07/15 11:59:10;;;;;;;6.23;3.30;;;37.40;61.60;;;;;;5012235;28;20456;-62
2023/07/15 12:01:40;;;;;;;4.07;3.00;;;37.10;61.70;;;;;;5012093;28;21014;-62
2023/07/15 12:04:16;;;;;;;4.30;3.03;;;37.00;62.50;;;;;;5012455;28;20868;-63
2023/07/15 12:06:51;;;;;;;3.87;3.20;;;36.80;60.80;;;;;;5012137;28;20452;-63
2023/07/15 12:09:18;;;;;;;3.90;3.20;;;37.00;62.30;;;;;;5012262;28;20537;-63
2023/07/15 12:11:47;;;;;;;3.43;2.90;;;37.60;60.30;;;;;;5012096;28;20487;-64
2023/07/15 12:14:15;;;;;;;4.27;3.10;;;38.00;60.90;;;;;;5012120;28;20878;-63
2023/07/15 12:16:43;;;;;;;4.10;3.33;;;38.30;59.30;;;;;;5012070;28;20459;-61
2023/07/15 12:19:12;;;;;;;3.87;3.13;;;38.40;58.60;;;;;;5012092;28;20467;-61
2023/07/15 12:21:41;;;;;;;3.87;3.00;;;38.50;59.30;;;;;;4994806;28;20529;-61
2023/07/15 12:24:09;;;;;;;3.80;3.20;;;38.80;58.80;;;;;;5011959;28;20962;-61
2023/07/15 12:26:36;;;;;;;5.27;3.80;;;39.10;59.00;;;;;;5012156;28;20462;-61
2023/07/15 12:29:03;;;;;;;3.90;3.17;;;39.50;58.20;;;;;;5012008;28;20460;-62
2023/07/15 12:31:30;;;;;;;5.13;3.17;;;39.80;58.80;;;;;;5011749;28;20459;-63
2023/07/15 12:33:58;;;;;;;4.47;3.57;;;40.20;59.20;;;;;;5010594;28;20451;-63
2023/07/15 12:36:25;;;;;;;3.23;2.70;;;40.40;56.40;;;;;;5011391;28;20888;-63
2023/07/15 12:38:53;;;;;;;4.10;2.87;;;40.80;55.80;;;;;;5011548;28;20470;-63
2023/07/15 12:41:20;;;;;;;3.80;2.90;;;41.00;55.10;;;;;;5011639;28;20546;-64
2023/07/15 12:43:48;;;;;;;3.40;3.20;;;41.20;54.60;;;;;;5010384;28;20483;-61
2023/07/15 12:46:16;;;;;;;4.10;3.00;;;41.40;53.80;;;;;;5011556;28;20436;-61
2023/07/15 12:48:43;;;;;;;3.50;2.93;;;41.50;54.70;;;;;;5011441;28;20447;-62
2023/07/15 12:51:10;;;;;;;4.00;2.97;;;41.30;53.90;;;;;;5011609;28;20829;-61